Time;durP1;ratioP1;P1;durP2;ratioP2;P2;SDS_P1;SDS_P2;PMS_P1;PMS_P2;Temp;Humidity;BMP_temperature;BMP_pressure;BME280_temperature;BME280_humidity;BME280_pressure;Samples;Min_cycle;Max_cycle;Signal;HPM_P1;HPM_P2
2021/08/02 00:00:15;;;;;;;19.50;8.05;;;;;;;23.31;100.00;94405.13;10531819;28;20562;-75
2021/08/02 00:05:23;;;;;;;26.42;8.25;;;;;;;23.15;100.00;94407.16;10531384;28;20024;-75
2021/08/02 00:10:29;;;;;;;23.73;8.30;;;;;;;23.12;100.00;94397.75;10530809;28;20428;-75
2021/08/02 00:15:30;;;;;;;24.73;8.30;;;;;;;23.04;100.00;94401.47;10530971;28;20028;-75
2021/08/02 00:20:34;;;;;;;26.00;7.60;;;;;;;23.07;100.00;94421.88;10530558;28;20024;-74
2021/08/02 00:25:35;;;;;;;24.08;8.57;;;;;;;23.06;100.00;94417.56;10530690;28;20059;-74
2021/08/02 00:30:35;;;;;;;27.90;7.82;;;;;;;23.07;100.00;94416.41;10530649;28;20020;-74
2021/08/02 00:35:41;;;;;;;18.97;6.17;;;;;;;22.94;97.39;94413.81;10530475;28;20487;-74
2021/08/02 00:41:02;;;;;;;17.38;4.78;;;;;;;23.25;79.16;94400.31;10530194;28;20290;-74
2021/08/02 00:46:04;;;;;;;14.13;5.80;;;;;;;23.31;81.09;94407.88;10530154;28;20105;-75
2021/08/02 00:51:05;;;;;;;28.83;5.30;;;;;;;23.53;67.40;94400.84;10530260;28;20032;-75
2021/08/02 00:56:06;;;;;;;19.25;6.15;;;;;;;23.71;65.55;94390.19;10529739;28;20047;-75
2021/08/02 01:01:07;;;;;;;19.88;4.60;;;;;;;23.75;65.55;94383.97;10529739;28;20050;-75
2021/08/02 01:06:10;;;;;;;23.83;5.15;;;;;;;23.75;64.95;94375.72;10511699;28;20827;-75
2021/08/02 01:11:12;;;;;;;21.65;4.45;;;;;;;23.64;71.61;94368.13;10529376;28;20398;-74
2021/08/02 01:16:12;;;;;;;23.73;7.13;;;;;;;23.51;73.58;94359.28;10527927;28;20024;-75
2021/08/02 01:21:14;;;;;;;16.50;5.70;;;;;;;23.24;72.58;94358.41;10544809;28;20024;-74
2021/08/02 01:26:40;;;;;;;28.88;5.10;;;;;;;23.08;74.45;94352.19;10529479;28;20052;-74
2021/08/02 01:31:40;;;;;;;23.98;5.05;;;;;;;22.93;76.65;94345.66;10529504;28;20033;-75
2021/08/02 01:36:40;;;;;;;13.80;5.35;;;;;;;22.85;78.80;94347.44;10528842;28;20024;-74
2021/08/02 01:41:41;;;;;;;26.70;5.70;;;;;;;22.69;82.47;94334.63;10528643;28;20028;-74
2021/08/02 01:46:47;;;;;;;16.87;5.33;;;;;;;22.58;85.10;94325.41;10544316;28;20281;-75
2021/08/02 01:51:54;;;;;;;19.30;6.15;;;;;;;22.56;85.23;94305.00;10528830;28;20665;-74
2021/08/02 01:57:07;;;;;;;27.43;6.80;;;;;;;22.51;87.84;94292.41;10535426;28;20055;-74
2021/08/02 02:02:14;;;;;;;16.65;5.88;;;;;;;22.47;90.37;94295.03;10536666;28;20273;-74
2021/08/02 02:07:16;;;;;;;16.58;6.47;;;;;;;22.35;91.90;94301.47;10536402;28;20035;-75
2021/08/02 02:12:18;;;;;;;15.57;6.07;;;;;;;22.38;93.08;94293.69;10536289;28;20139;-75
2021/08/02 02:17:21;;;;;;;22.23;6.30;;;;;;;22.22;91.96;94296.44;10558079;27;20083;-74
2021/08/02 02:22:24;;;;;;;23.98;6.60;;;;;;;22.23;93.84;94312.50;10620019;27;20390;-74
2021/08/02 02:27:25;;;;;;;14.32;6.93;;;;;;;22.14;95.13;94301.75;10619731;27;20039;-75
2021/08/02 02:32:26;;;;;;;18.45;6.47;;;;;;;22.06;92.80;94316.44;10619946;27;20223;-74
2021/08/02 02:37:28;;;;;;;29.92;6.68;;;;;;;21.99;100.00;94308.06;10619862;27;20027;-74
2021/08/02 02:42:29;;;;;;;18.83;5.20;;;;;;;22.01;90.23;94306.56;10618999;27;20055;-74
2021/08/02 02:47:31;;;;;;;17.33;6.55;;;;;;;21.94;93.88;94302.88;10622954;27;20084;-74
2021/08/02 02:52:32;;;;;;;24.60;9.05;;;;;;;21.94;94.08;94303.66;10634948;27;20035;-74
2021/08/02 02:57:32;;;;;;;18.17;6.32;;;;;;;21.88;96.09;94299.63;10619045;27;20026;-74
2021/08/02 03:02:34;;;;;;;24.85;7.45;;;;;;;21.93;100.00;94321.22;10618916;27;20031;-75
2021/08/02 03:07:37;;;;;;;21.15;7.30;;;;;;;21.89;100.00;94297.69;10617766;27;20147;-75
2021/08/02 03:12:38;;;;;;;21.52;6.38;;;;;;;21.87;100.00;94324.59;10618368;27;20035;-74
2021/08/02 03:17:38;;;;;;;20.77;7.00;;;;;;;21.77;100.00;94310.31;10633855;27;20031;-74
2021/08/02 03:22:48;;;;;;;19.98;8.45;;;;;;;21.72;100.00;94316.03;10618011;27;20061;-74
2021/08/02 03:27:55;;;;;;;19.48;6.68;;;;;;;21.78;100.00;94316.56;10617447;27;20076;-75
2021/08/02 03:33:00;;;;;;;24.95;6.65;;;;;;;21.78;100.00;94319.31;10617737;27;20464;-75
2021/08/02 03:38:02;;;;;;;22.88;6.60;;;;;;;21.60;100.00;94327.09;10617086;27;20031;-75
2021/08/02 03:43:03;;;;;;;13.75;5.55;;;;;;;21.76;96.89;94324.34;10616876;27;20136;-75
2021/08/02 03:48:04;;;;;;;25.33;6.82;;;;;;;21.81;97.82;94343.22;10616748;27;20031;-75
2021/08/02 03:53:04;;;;;;;17.15;7.20;;;;;;;21.73;100.00;94357.88;10616379;27;20478;-75
2021/08/02 03:58:07;;;;;;;30.95;7.80;;;;;;;21.73;100.00;94363.34;10616223;27;20019;-73
2021/08/02 04:03:08;;;;;;;21.23;7.18;;;;;;;21.87;100.00;94343.75;10616130;27;20114;-73
2021/08/02 04:08:08;;;;;;;15.95;6.93;;;;;;;21.88;99.52;94335.19;10616446;27;20039;-74
2021/08/02 04:13:08;;;;;;;18.80;6.83;;;;;;;21.95;100.00;94338.09;10615551;27;20038;-73
2021/08/02 04:18:09;;;;;;;24.40;8.30;;;;;;;21.93;99.79;94331.38;10614889;27;20057;-74
2021/08/02 04:23:11;;;;;;;21.85;7.28;;;;;;;22.08;100.00;94344.25;10615305;27;20276;-74
2021/08/02 04:28:11;;;;;;;26.20;7.28;;;;;;;22.18;99.86;94330.00;10615368;27;20139;-74
2021/08/02 04:33:11;;;;;;;17.43;7.07;;;;;;;22.33;98.40;94341.28;10615137;27;20041;-74
2021/08/02 04:38:12;;;;;;;30.05;9.18;;;;;;;22.47;100.00;94330.66;10614838;27;20084;-76
2021/08/02 04:43:12;;;;;;;14.07;7.17;;;;;;;22.49;98.11;94322.06;10614728;27;20027;-75
2021/08/02 04:48:12;;;;;;;19.95;8.07;;;;;;;22.67;98.28;94328.69;10614438;27;20285;-74
2021/08/02 04:53:14;;;;;;;28.40;7.13;;;;;;;23.04;100.00;94336.47;10613821;27;20031;-73
2021/08/02 04:58:15;;;;;;;16.60;7.50;;;;;;;23.49;95.66;94322.41;10595756;27;20065;-73
2021/08/02 05:03:15;;;;;;;14.33;6.20;;;;;;;23.97;88.33;94316.53;10595956;27;20117;-73
2021/08/02 05:08:16;;;;;;;19.50;7.30;;;;;;;24.38;89.25;94313.97;10613693;27;20289;-73
2021/08/02 05:13:17;;;;;;;28.43;8.50;;;;;;;24.69;80.55;94326.56;10613681;28;20794;-73
2021/08/02 05:18:17;;;;;;;21.73;8.55;;;;;;;24.96;80.76;94328.44;10613939;28;20304;-73
2021/08/02 05:23:17;;;;;;;14.73;6.97;;;;;;;25.55;84.35;94337.72;10613324;28;20110;-73
2021/08/02 05:28:19;;;;;;;31.80;10.40;;;;;;;25.86;78.99;94345.84;10614485;27;20031;-73
2021/08/02 05:33:20;;;;;;;28.95;9.55;;;;;;;26.51;77.90;94351.81;10620891;27;20265;-73
2021/08/02 05:38:20;;;;;;;26.53;10.20;;;;;;;26.98;75.43;94358.38;10620654;27;20482;-74
2021/08/02 05:43:21;;;;;;;26.97;9.77;;;;;;;27.60;70.22;94367.63;10621757;27;20035;-74
2021/08/02 05:48:21;;;;;;;20.37;8.53;;;;;;;28.17;66.15;94375.19;10621066;27;20042;-74
2021/08/02 05:53:21;;;;;;;19.87;8.83;;;;;;;28.76;60.23;94394.09;10621387;27;20039;-74
2021/08/02 05:58:22;;;;;;;24.50;9.77;;;;;;;28.19;67.53;94394.13;10602741;27;20034;-73
2021/08/02 06:03:22;;;;;;;37.33;10.90;;;;;;;28.00;68.15;94393.34;10621161;27;20303;-73
2021/08/02 06:08:22;;;;;;;28.10;9.83;;;;;;;28.10;67.12;94387.03;10602089;27;20558;-74
2021/08/02 06:13:23;;;;;;;28.00;9.87;;;;;;;28.39;63.99;94387.00;10620325;27;20558;-74
2021/08/02 06:18:23;;;;;;;32.50;10.77;;;;;;;29.71;58.29;94383.41;10620110;27;20027;-74
2021/08/02 06:23:24;;;;;;;20.70;7.90;;;;;;;30.35;53.36;94384.91;10620146;27;20509;-74
2021/08/02 06:28:24;;;;;;;20.63;8.57;;;;;;;31.44;50.54;94381.78;10601265;27;20034;-74
2021/08/02 06:33:24;;;;;;;22.87;7.67;;;;;;;32.78;45.78;94391.66;10619390;27;20110;-74
2021/08/02 06:38:31;;;;;;;18.30;7.57;;;;;;;33.88;40.88;94373.94;10619391;27;20034;-74
2021/08/02 06:43:32;;;;;;;18.70;7.13;;;;;;;33.94;37.82;94381.75;10621540;27;20039;-74
2021/08/02 06:48:32;;;;;;;31.97;8.40;;;;;;;35.12;37.41;94388.41;10618762;27;20039;-74
2021/08/02 06:53:33;;;;;;;14.65;5.97;;;;;;;36.00;34.91;94386.22;10619125;27;20041;-74
2021/08/02 06:58:33;;;;;;;24.98;6.45;;;;;;;36.99;33.80;94388.19;10619167;27;20084;-74
2021/08/02 07:03:33;;;;;;;22.10;7.27;;;;;;;37.18;33.93;94369.53;10618361;27;20402;-75
2021/08/02 07:08:38;;;;;;;27.43;7.27;;;;;;;37.85;31.63;94383.53;10618454;27;20031;-75
2021/08/02 07:13:38;;;;;;;19.42;6.55;;;;;;;38.42;31.93;94386.09;10618121;27;20067;-75
2021/08/02 07:18:38;;;;;;;21.50;6.07;;;;;;;37.88;31.78;94377.75;10617570;27;20102;-74
2021/08/02 07:23:39;;;;;;;19.13;6.80;;;;;;;38.96;29.89;94370.56;10617169;27;20161;-74
2021/08/02 07:28:39;;;;;;;27.90;7.00;;;;;;;38.56;29.59;94377.06;10617375;27;20035;-75
2021/08/02 07:33:40;;;;;;;20.25;5.85;;;;;;;38.87;29.76;94366.97;10616910;27;20035;-75
2021/08/02 07:38:43;;;;;;;20.67;5.13;;;;;;;39.65;29.77;94368.31;10617568;27;20027;-74
2021/08/02 07:43:46;;;;;;;22.58;5.60;;;;;;;40.36;27.20;94367.41;10633274;27;20035;-75
2021/08/02 07:48:51;;;;;;;21.98;6.05;;;;;;;40.58;25.95;94362.31;10616781;27;20038;-75
2021/08/02 07:53:52;;;;;;;18.67;4.93;;;;;;;41.60;25.35;94357.88;10616041;27;20067;-75
2021/08/02 07:58:52;;;;;;;17.70;5.47;;;;;;;41.77;25.02;94358.13;10616262;27;20109;-75
2021/08/02 08:03:52;;;;;;;20.77;5.23;;;;;;;42.20;24.61;94352.97;10616163;27;20031;-75
2021/08/02 08:08:53;;;;;;;20.83;5.73;;;;;;;43.77;22.64;94340.41;10615679;27;20023;-75
2021/08/02 08:13:53;;;;;;;20.98;5.70;;;;;;;44.13;22.80;94349.47;10615361;27;20027;-75
2021/08/02 08:18:56;;;;;;;15.77;4.87;;;;;;;44.53;22.26;94336.31;10615261;27;20023;-76
2021/08/02 08:23:56;;;;;;;22.42;5.00;;;;;;;44.62;21.38;94344.63;10615333;27;20414;-76
2021/08/02 08:28:56;;;;;;;18.13;4.73;;;;;;;45.21;21.50;94331.72;10615119;27;20027;-76
2021/08/02 08:33:57;;;;;;;20.90;5.60;;;;;;;45.78;20.12;94316.84;10615153;27;20030;-75
2021/08/02 08:38:57;;;;;;;23.80;5.10;;;;;;;45.47;21.90;94312.97;10614571;27;20049;-73
2021/08/02 08:43:58;;;;;;;22.30;5.60;;;;;;;45.94;21.06;94306.78;10614533;27;20285;-73
2021/08/02 08:48:59;;;;;;;21.43;5.73;;;;;;;46.11;20.83;94313.22;10614415;27;20407;-74
2021/08/02 08:53:59;;;;;;;15.10;4.80;;;;;;;47.08;20.08;94283.19;10614309;27;20023;-73
2021/08/02 08:59:00;;;;;;;16.47;5.63;;;;;;;47.35;18.49;94286.38;10614457;27;20031;-74
2021/08/02 09:04:02;;;;;;;13.53;5.37;;;;;;;46.53;19.14;94293.50;10614102;27;20022;-74
2021/08/02 09:09:02;;;;;;;19.13;4.68;;;;;;;47.00;18.89;94279.38;10613360;27;20031;-74
2021/08/02 09:14:10;;;;;;;21.23;4.27;;;;;;;47.88;18.36;94271.22;10613848;28;20053;-74
2021/08/02 09:19:12;;;;;;;22.05;4.50;;;;;;;49.03;17.58;94264.50;10613477;27;20583;-74
2021/08/02 09:24:13;;;;;;;19.38;4.47;;;;;;;49.15;16.91;94255.78;10612977;27;20403;-74
2021/08/02 09:29:20;;;;;;;21.83;3.90;;;;;;;49.57;15.70;94245.53;10613376;28;20023;-74
2021/08/02 09:34:22;;;;;;;19.20;4.30;;;;;;;50.13;15.27;94236.53;10618566;27;20533;-74
2021/08/02 09:39:29;;;;;;;16.23;3.88;;;;;;;49.32;15.45;94233.50;10613563;27;20027;-75
2021/08/02 09:44:31;;;;;;;32.80;4.63;;;;;;;48.45;17.11;94248.63;10595161;28;20035;-74
2021/08/02 09:49:44;;;;;;;31.40;3.88;;;;;;;46.96;14.36;94230.50;10612989;28;20039;-74
2021/08/02 09:54:45;;;;;;;23.97;3.83;;;;;;;46.74;15.84;94220.03;10612704;28;20034;-74
2021/08/02 09:59:45;;;;;;;15.30;3.10;;;;;;;45.48;15.50;94227.31;10612620;28;20477;-74
2021/08/02 10:04:46;;;;;;;17.00;3.30;;;;;;;45.95;16.38;94217.44;10612575;28;20035;-74
2021/08/02 10:09:47;;;;;;;15.88;3.45;;;;;;;45.16;15.08;94221.06;10612657;28;20045;-74
2021/08/02 10:14:54;;;;;;;19.13;3.20;;;;;;;46.10;15.08;94211.47;10614296;27;20038;-74
2021/08/02 10:19:54;;;;;;;24.08;3.53;;;;;;;44.65;14.48;94207.53;10620424;27;20088;-74
2021/08/02 10:24:56;;;;;;;19.27;3.60;;;;;;;44.42;15.76;94211.59;10619996;27;20104;-74
2021/08/02 10:29:56;;;;;;;20.38;2.67;;;;;;;44.93;15.34;94204.00;10619487;27;20079;-74
2021/08/02 10:34:59;;;;;;;14.13;2.97;;;;;;;45.44;16.12;94180.56;10619127;27;20027;-74
2021/08/02 10:40:09;;;;;;;23.08;3.22;;;;;;;43.97;15.29;94184.59;10619301;27;20126;-74
2021/08/02 10:45:09;;;;;;;25.20;3.10;;;;;;;43.24;14.27;94184.88;10619116;27;20027;-74
2021/08/02 10:50:11;;;;;;;19.65;2.78;;;;;;;43.89;15.27;94199.75;10618605;27;20039;-74
2021/08/02 10:55:15;;;;;;;12.77;3.50;;;;;;;44.00;14.77;94194.94;10618870;27;20030;-74
2021/08/02 11:00:19;;;;;;;;;;;;;;;45.11;13.48;94190.66;10618647;27;20023;-74
2021/08/02 11:05:21;;;;;;;18.70;3.13;;;;;;;45.61;12.96;94192.72;10618513;27;19936;-74
2021/08/02 11:10:22;;;;;;;35.42;3.42;;;;;;;45.46;13.67;94175.97;10617642;27;20477;-73
2021/08/02 11:15:22;;;;;;;17.13;4.07;;;;;;;41.65;14.64;94173.78;10617536;27;20027;-74
2021/08/02 11:20:24;;;;;;;27.03;3.53;;;;;;;40.25;16.59;94188.53;10617645;27;20023;-73
2021/08/02 11:25:30;;;;;;;34.03;5.82;;;;;;;39.75;16.54;94179.81;10616546;27;20066;-73
2021/08/02 11:30:30;;;;;;;40.00;4.40;;;;;;;39.53;15.99;94178.03;10616882;27;20076;-74
2021/08/02 11:35:35;;;;;;;23.85;4.20;;;;;;;39.18;17.24;94181.31;10617036;27;20048;-74
2021/08/02 11:40:38;;;;;;;19.03;3.70;;;;;;;38.65;17.69;94193.72;10621862;27;20019;-74
2021/08/02 11:45:39;;;;;;;24.98;3.80;;;;;;;38.33;18.49;94187.53;10632593;27;20030;-74
2021/08/02 11:50:39;;;;;;;34.90;6.25;;;;;;;37.90;17.95;94187.34;10616198;27;20028;-74
2021/08/02 11:55:51;;;;;;;39.97;5.82;;;;;;;37.75;18.71;94181.53;10597697;27;20019;-74
2021/08/02 12:01:01;;;;;;;35.92;5.93;;;;;;;37.68;18.12;94179.00;10616251;27;20058;-74
2021/08/02 12:06:06;;;;;;;33.58;5.72;;;;;;;37.66;18.19;94183.53;10616067;27;20110;-74
2021/08/02 12:11:06;;;;;;;27.80;5.25;;;;;;;37.76;17.50;94171.09;10615753;27;20055;-73
2021/08/02 12:16:09;;;;;;;31.97;7.37;;;;;;;37.99;18.54;94188.59;10615364;27;20106;-73
2021/08/02 12:21:09;;;;;;;30.77;5.43;;;;;;;38.05;18.66;94181.09;10596600;27;20019;-74
2021/08/02 12:26:21;;;;;;;29.50;6.10;;;;;;;38.19;19.47;94176.91;10614960;27;20414;-74
2021/08/02 12:31:22;;;;;;;31.58;5.57;;;;;;;38.02;17.49;94176.44;10614399;27;20102;-74
2021/08/02 12:36:23;;;;;;;22.98;3.72;;;;;;;37.91;18.62;94177.66;10614310;27;20027;-74
2021/08/02 12:41:23;;;;;;;26.17;5.67;;;;;;;37.90;18.54;94155.69;10614404;27;20015;-74
2021/08/02 12:46:23;;;;;;;24.50;4.93;;;;;;;37.94;19.37;94168.34;10614203;27;20031;-74
2021/08/02 12:51:25;;;;;;;23.30;4.77;;;;;;;37.88;19.42;94167.38;10614113;27;20110;-74
2021/08/02 12:56:26;;;;;;;22.70;7.95;;;;;;;37.82;18.81;94158.03;10614044;27;20027;-74
2021/08/02 13:01:29;;;;;;;37.03;6.87;;;;;;;37.76;19.27;94162.69;10595595;27;20398;-74
2021/08/02 13:06:30;;;;;;;21.63;5.30;;;;;;;37.56;19.04;94157.50;10613468;27;20034;-74
2021/08/02 13:11:30;;;;;;;17.73;3.83;;;;;;;37.43;19.89;94154.81;10613348;27;20023;-74
2021/08/02 13:16:30;;;;;;;17.67;4.90;;;;;;;37.35;18.95;94153.53;10613212;28;20027;-74
2021/08/02 13:21:31;;;;;;;26.23;5.13;;;;;;;37.30;21.36;94140.13;10613088;28;20498;-74
2021/08/02 13:31:53;;;;;;;31.98;4.35;;;;;;;37.34;20.68;94137.97;10613501;27;21081;-74
2021/08/02 13:36:55;;;;;;;22.25;4.07;;;;;;;37.35;21.40;94143.09;10612718;27;20846;-73
2021/08/02 13:41:57;;;;;;;26.40;5.55;;;;;;;37.28;19.77;94138.56;10612999;27;20027;-73
2021/08/02 13:46:58;;;;;;;22.55;5.18;;;;;;;37.05;21.34;94148.28;10612597;28;20027;-73
2021/08/02 13:51:58;;;;;;;13.85;3.90;;;;;;;36.88;19.94;94144.94;10618067;27;20096;-73
2021/08/02 13:56:59;;;;;;;25.40;4.43;;;;;;;36.44;19.62;94147.78;10621128;27;20011;-73
2021/08/02 14:02:00;;;;;;;24.27;4.88;;;;;;;36.40;20.72;94147.88;10636998;27;20015;-74
2021/08/02 14:07:00;;;;;;;30.55;5.75;;;;;;;36.76;19.26;94148.59;10620511;27;20076;-73
2021/08/02 14:12:06;;;;;;;25.03;5.43;;;;;;;37.16;20.34;94141.47;10601944;27;20481;-73
2021/08/02 14:17:07;;;;;;;25.80;5.38;;;;;;;37.37;19.79;94132.22;10619986;27;20264;-73
2021/08/02 14:22:08;;;;;;;29.27;5.75;;;;;;;37.39;19.61;94131.75;10619764;27;20031;-73
2021/08/02 14:27:08;;;;;;;28.30;6.53;;;;;;;37.15;19.30;94128.69;10619583;27;20112;-73
2021/08/02 14:32:09;;;;;;;25.20;5.40;;;;;;;36.96;20.58;94133.44;10619486;27;20110;-74
2021/08/02 14:37:10;;;;;;;24.33;5.85;;;;;;;36.73;18.39;94121.47;10619223;27;20031;-74
2021/08/02 14:42:12;;;;;;;37.38;6.70;;;;;;;36.44;19.31;94125.38;10619206;27;20029;-74
2021/08/02 14:47:13;;;;;;;33.83;6.03;;;;;;;36.44;19.03;94128.19;10618785;27;20031;-74
2021/08/02 14:52:16;;;;;;;37.28;5.88;;;;;;;36.19;19.22;94129.84;10618649;27;20023;-74
2021/08/02 14:57:17;;;;;;;31.70;6.70;;;;;;;35.99;20.59;94124.56;10618536;27;20054;-74
2021/08/02 15:02:20;;;;;;;28.08;5.82;;;;;;;35.95;19.72;94125.91;10618543;27;20031;-74
2021/08/02 15:07:22;;;;;;;27.80;6.00;;;;;;;35.81;19.92;94097.25;10634650;27;20444;-74
2021/08/02 15:12:23;;;;;;;29.27;7.07;;;;;;;35.66;17.77;94107.34;10617704;27;20027;-74
2021/08/02 15:17:27;;;;;;;33.17;5.72;;;;;;;35.39;18.03;94117.81;10617714;27;20379;-74
2021/08/02 15:22:59;;;;;;;26.55;7.55;;;;;;;35.30;16.40;94125.28;10617771;27;20027;-74
2021/08/02 15:28:01;;;;;;;28.98;10.00;;;;;;;35.17;16.35;94123.28;10617517;27;20502;-73
2021/08/02 15:33:03;;;;;;;48.85;12.38;;;;;;;35.03;16.07;94130.09;10617271;27;20126;-74
2021/08/02 15:38:03;;;;;;;33.70;12.05;;;;;;;34.86;16.92;94123.06;10616955;27;20027;-73
2021/08/02 15:43:04;;;;;;;28.73;13.57;;;;;;;34.81;16.39;94129.22;10617011;27;20030;-73
2021/08/02 15:48:04;;;;;;;37.10;14.67;;;;;;;34.68;17.89;94131.97;10616705;27;20025;-73
2021/08/02 15:53:05;;;;;;;32.92;10.25;;;;;;;34.68;17.42;94137.56;10616439;27;20039;-73
2021/08/02 15:58:08;;;;;;;29.30;9.30;;;;;;;34.57;17.66;94141.44;10616330;27;20489;-74
2021/08/02 16:03:34;;;;;;;24.70;8.05;;;;;;;34.48;16.96;94138.53;10615876;27;20034;-73
2021/08/02 16:09:00;;;;;;;23.25;7.78;;;;;;;34.38;16.81;94143.19;10615993;27;20500;-73
2021/08/02 16:14:02;;;;;;;28.83;8.27;;;;;;;34.33;16.79;94149.31;10615113;27;20031;-73
2021/08/02 16:19:04;;;;;;;22.08;9.02;;;;;;;34.28;18.49;94151.84;10615415;27;20110;-73
2021/08/02 16:24:05;;;;;;;30.98;9.60;;;;;;;33.99;18.20;94158.97;10615037;27;20047;-73
2021/08/02 16:29:05;;;;;;;19.48;7.78;;;;;;;34.03;17.09;94151.28;10596674;27;20142;-73
2021/08/02 16:34:06;;;;;;;23.05;7.00;;;;;;;33.95;17.24;94149.16;10615148;27;20031;-73
2021/08/02 16:39:06;;;;;;;19.33;6.90;;;;;;;33.87;16.19;94163.28;10614940;27;20486;-73
2021/08/02 16:44:08;;;;;;;23.07;7.60;;;;;;;33.85;17.65;94165.72;10614403;27;20031;-73
2021/08/02 16:49:08;;;;;;;26.17;7.38;;;;;;;33.67;17.90;94168.16;10614049;27;20027;-73
2021/08/02 16:54:09;;;;;;;28.50;7.80;;;;;;;33.39;17.91;94178.78;10614306;27;20539;-73
2021/08/02 16:59:09;;;;;;;20.90;8.00;;;;;;;33.27;18.40;94176.69;10595768;27;20019;-73
2021/08/02 17:04:10;;;;;;;30.20;6.10;;;;;;;33.15;17.80;94176.13;10614144;27;20037;-73
2021/08/02 17:09:10;;;;;;;20.67;5.97;;;;;;;33.00;18.54;94186.84;10629945;27;20371;-73
2021/08/02 17:14:11;;;;;;;19.65;4.65;;;;;;;32.89;17.86;94183.50;10613785;28;20516;-73
2021/08/02 17:19:11;;;;;;;17.97;4.53;;;;;;;32.85;18.49;94183.59;10613535;28;20418;-73
2021/08/02 17:24:12;;;;;;;13.40;5.20;;;;;;;32.69;18.84;94189.88;10614512;27;20047;-73
2021/08/02 17:29:12;;;;;;;17.48;4.45;;;;;;;32.62;18.54;94189.25;10622441;27;20038;-73
2021/08/02 17:34:13;;;;;;;12.48;4.03;;;;;;;32.56;17.96;94188.97;10622201;27;20031;-73
2021/08/02 17:39:13;;;;;;;13.73;4.23;;;;;;;32.53;17.79;94189.81;10622457;27;20019;-73
2021/08/02 17:44:14;;;;;;;10.47;2.87;;;;;;;32.55;17.19;94190.94;10603613;27;20023;-73
2021/08/02 17:49:16;;;;;;;16.90;3.38;;;;;;;32.49;17.56;94200.25;10621772;27;20030;-73
2021/08/02 17:54:17;;;;;;;10.63;3.05;;;;;;;32.39;18.24;94215.94;10621570;27;20055;-73
2021/08/02 17:59:17;;;;;;;17.05;4.05;;;;;;;32.25;18.20;94218.97;10621333;27;20110;-73
2021/08/02 18:04:18;;;;;;;16.13;4.40;;;;;;;32.02;18.82;94231.69;10621082;27;20035;-73
2021/08/02 18:09:19;;;;;;;15.43;5.03;;;;;;;31.89;18.90;94231.50;10621105;27;20431;-75
2021/08/02 18:14:19;;;;;;;18.15;6.68;;;;;;;31.69;18.62;94237.00;10620800;27;20113;-74
2021/08/02 18:19:20;;;;;;;18.17;5.47;;;;;;;31.51;18.98;94256.72;10620653;27;20031;-74
2021/08/02 18:24:21;;;;;;;14.80;4.25;;;;;;;31.28;19.33;94263.00;10619706;27;20047;-75
2021/08/02 18:29:21;;;;;;;17.77;6.00;;;;;;;31.08;20.13;94271.25;10619928;27;20023;-74
2021/08/02 18:34:21;;;;;;;24.27;5.70;;;;;;;30.77;21.46;94285.06;10619458;27;20027;-74
2021/08/02 18:39:22;;;;;;;18.87;5.77;;;;;;;30.48;23.07;94285.41;10586872;27;20265;-74
2021/08/02 18:44:23;;;;;;;25.67;5.57;;;;;;;30.25;25.32;94299.88;10577165;28;20028;-74
2021/08/02 18:49:23;;;;;;;24.20;5.85;;;;;;;29.82;25.55;94304.59;10576087;28;20497;-74
2021/08/02 18:54:24;;;;;;;13.93;5.85;;;;;;;29.67;25.90;94314.19;10576379;28;20059;-74
2021/08/02 18:59:24;;;;;;;23.33;6.93;;;;;;;29.34;26.86;94321.91;10575972;28;20084;-74
2021/08/02 19:04:24;;;;;;;24.67;6.10;;;;;;;29.14;27.85;94339.00;10576095;28;20035;-74
2021/08/02 19:09:25;;;;;;;24.50;7.88;;;;;;;28.88;26.15;94339.53;10557750;28;20096;-74
2021/08/02 19:14:28;;;;;;;24.47;8.50;;;;;;;28.81;25.37;94351.41;10576230;28;20479;-74
2021/08/02 19:19:29;;;;;;;19.73;6.68;;;;;;;28.74;26.53;94360.50;10575643;28;20316;-76
2021/08/02 19:24:31;;;;;;;22.33;6.75;;;;;;;28.66;27.08;94372.75;10556491;28;20071;-74
2021/08/02 19:29:36;;;;;;;21.25;7.00;;;;;;;28.56;29.46;94384.63;10575297;28;20035;-74
2021/08/02 19:34:37;;;;;;;17.90;5.97;;;;;;;28.41;33.77;94390.19;10574945;28;20032;-73
2021/08/02 19:39:37;;;;;;;17.90;4.60;;;;;;;28.27;38.73;94384.66;10574396;28;20028;-73
2021/08/02 19:45:02;;;;;;;14.07;4.93;;;;;;;28.11;40.94;94393.34;10574394;28;20027;-73
2021/08/02 19:50:06;;;;;;;12.85;4.80;;;;;;;27.98;44.20;94398.44;10554691;28;20411;-73
2021/08/02 19:55:08;;;;;;;21.13;5.20;;;;;;;27.84;55.49;94407.50;10574018;28;20130;-74
2021/08/02 20:00:09;;;;;;;18.23;4.30;;;;;;;27.72;69.61;94433.50;10573281;28;20016;-74
2021/08/02 20:05:11;;;;;;;14.35;4.22;;;;;;;27.55;79.64;94439.78;10567291;28;20031;-74
2021/08/02 20:10:12;;;;;;;21.75;4.95;;;;;;;27.31;83.91;94446.75;10554387;28;20059;-74
2021/08/02 20:15:13;;;;;;;17.05;4.70;;;;;;;27.15;89.40;94469.16;10573168;28;20118;-74
2021/08/02 20:20:13;;;;;;;16.27;5.00;;;;;;;27.06;90.15;94477.81;10572467;28;20019;-74
2021/08/02 20:25:14;;;;;;;13.20;6.37;;;;;;;26.88;94.16;94492.25;10571535;28;20048;-74
2021/08/02 20:30:15;;;;;;;17.20;5.93;;;;;;;26.69;96.86;94507.09;10572424;28;20031;-73
2021/08/02 20:35:17;;;;;;;15.20;6.10;;;;;;;26.59;99.12;94516.84;10571420;28;20091;-74
2021/08/02 20:40:17;;;;;;;18.77;5.93;;;;;;;26.42;100.00;94517.50;10553137;28;20118;-74
2021/08/02 20:45:18;;;;;;;13.27;4.37;;;;;;;26.28;100.00;94520.91;10571936;28;20035;-74
2021/08/02 20:50:18;;;;;;;18.40;5.93;;;;;;;26.13;100.00;94538.47;10571158;28;20031;-73
2021/08/02 20:55:19;;;;;;;18.30;5.05;;;;;;;25.88;100.00;94548.00;10571249;28;20031;-74
2021/08/02 21:00:20;;;;;;;23.42;5.95;;;;;;;25.38;100.00;94548.22;10552490;28;20858;-74
2021/08/02 21:05:28;;;;;;;15.07;5.47;;;;;;;25.14;100.00;94554.13;10570816;28;20024;-74
2021/08/02 21:10:51;;;;;;;14.23;6.28;;;;;;;24.97;100.00;94561.75;10570689;28;20027;-74
2021/08/02 21:16:12;;;;;;;18.73;7.60;;;;;;;24.70;100.00;94569.97;10570563;28;20040;-73
2021/08/02 21:21:15;;;;;;;20.40;5.75;;;;;;;24.64;100.00;94571.44;10570654;28;20365;-74
2021/08/02 21:26:16;;;;;;;13.13;5.43;;;;;;;24.51;100.00;94572.75;10552086;28;20063;-74
2021/08/02 21:31:16;;;;;;;12.77;5.40;;;;;;;24.38;100.00;94586.69;10571107;28;20034;-74
2021/08/02 21:36:19;;;;;;;14.50;4.93;;;;;;;24.20;100.00;94594.59;10570520;28;20035;-74
2021/08/02 21:41:21;;;;;;;16.80;5.35;;;;;;;24.03;100.00;94595.84;10557418;28;20051;-74
2021/08/02 21:46:22;;;;;;;12.90;4.80;;;;;;;23.95;100.00;94601.56;10528123;28;20089;-74
2021/08/02 21:51:22;;;;;;;10.80;6.18;;;;;;;23.84;100.00;94612.31;10528201;28;20040;-74
2021/08/02 21:56:23;;;;;;;14.18;5.28;;;;;;;23.72;100.00;94621.47;10527626;28;20035;-73
2021/08/02 22:01:23;;;;;;;17.07;5.40;;;;;;;23.80;100.00;94619.66;10561586;28;20524;-73
2021/08/02 22:06:24;;;;;;;13.47;5.50;;;;;;;23.68;100.00;94631.56;10545725;28;20274;-74
2021/08/02 22:11:24;;;;;;;16.03;6.33;;;;;;;23.71;100.00;94642.63;10530408;28;20286;-74
2021/08/02 22:16:24;;;;;;;9.60;4.73;;;;;;;23.61;100.00;94634.97;10535418;28;20024;-74
2021/08/02 22:21:25;;;;;;;16.83;5.27;;;;;;;23.65;100.00;94646.00;10536016;28;20020;-73
2021/08/02 22:26:26;;;;;;;11.50;4.63;;;;;;;23.63;100.00;94651.06;10534680;28;20298;-74
2021/08/02 22:31:26;;;;;;;16.38;4.60;;;;;;;23.46;100.00;94660.50;10534455;28;20028;-73
2021/08/02 22:36:29;;;;;;;14.10;4.83;;;;;;;23.29;100.00;94656.19;10535418;28;20135;-73
2021/08/02 22:41:38;;;;;;;9.88;4.47;;;;;;;23.16;100.00;94650.81;10534104;28;20381;-74
2021/08/02 22:46:40;;;;;;;9.10;4.40;;;;;;;23.06;100.00;94650.53;10550996;28;20092;-74
2021/08/02 22:51:44;;;;;;;16.50;8.43;;;;;;;22.92;100.00;94626.31;10576126;28;20031;-74
2021/08/02 22:56:47;;;;;;;14.23;5.13;;;;;;;22.81;100.00;94634.28;10575339;28;20513;-74
2021/08/02 23:01:49;;;;;;;12.38;5.63;;;;;;;22.76;100.00;94649.03;10577552;28;20126;-74
2021/08/02 23:06:59;;;;;;;14.25;4.85;;;;;;;22.73;100.00;94659.91;10575774;28;20027;-74
2021/08/02 23:12:00;;;;;;;15.82;4.25;;;;;;;22.66;100.00;94657.78;10575233;28;20028;-74